sensor_id;sensor_type;location;lat;lon;timestamp;temperature;humidity
3818;DHT22;1924;48.078;11.516;2024-02-26T00:01:12;4.30;96.80
3818;DHT22;1924;48.078;11.516;2024-02-26T00:03:40;4.30;97.00
3818;DHT22;1924;48.078;11.516;2024-02-26T00:06:07;4.30;97.20
3818;DHT22;1924;48.078;11.516;2024-02-26T00:08:34;4.20;97.00
3818;DHT22;1924;48.078;11.516;2024-02-26T00:11:01;4.30;97.20
3818;DHT22;1924;48.078;11.516;2024-02-26T00:13:28;4.40;97.20
3818;DHT22;1924;48.078;11.516;2024-02-26T00:15:54;4.40;97.00
3818;DHT22;1924;48.078;11.516;2024-02-26T00:18:21;4.40;96.70
3818;DHT22;1924;48.078;11.516;2024-02-26T00:20:49;4.30;96.70
3818;DHT22;1924;48.078;11.516;2024-02-26T00:23:16;4.30;96.30
3818;DHT22;1924;48.078;11.516;2024-02-26T00:25:43;4.30;96.50
3818;DHT22;1924;48.078;11.516;2024-02-26T00:28:10;4.30;96.50
3818;DHT22;1924;48.078;11.516;2024-02-26T00:30:38;4.10;96.80
3818;DHT22;1924;48.078;11.516;2024-02-26T00:33:05;3.90;96.80
3818;DHT22;1924;48.078;11.516;2024-02-26T00:35:32;3.80;97.00
3818;DHT22;1924;48.078;11.516;2024-02-26T00:38:00;3.80;96.60
3818;DHT22;1924;48.078;11.516;2024-02-26T00:40:28;3.90;97.50
3818;DHT22;1924;48.078;11.516;2024-02-26T00:42:55;4.00;97.20
3818;DHT22;1924;48.078;11.516;2024-02-26T00:45:22;4.00;96.80
3818;DHT22;1924;48.078;11.516;2024-02-26T00:47:49;4.00;96.80
3818;DHT22;1924;48.078;11.516;2024-02-26T00:50:15;4.00;96.80
3818;DHT22;1924;48.078;11.516;2024-02-26T00:52:42;3.90;96.40
3818;DHT22;1924;48.078;11.516;2024-02-26T00:55:11;3.90;96.60
3818;DHT22;1924;48.078;11.516;2024-02-26T00:57:37;4.00;96.80
3818;DHT22;1924;48.078;11.516;2024-02-26T01:00:07;4.10;96.60
3818;DHT22;1924;48.078;11.516;2024-02-26T01:02:34;4.00;96.50
3818;DHT22;1924;48.078;11.516;2024-02-26T01:05:01;4.00;96.40
3818;DHT22;1924;48.078;11.516;2024-02-26T01:07:28;4.10;96.50
3818;DHT22;1924;48.078;11.516;2024-02-26T01:09:58;4.00;96.30
3818;DHT22;1924;48.078;11.516;2024-02-26T05:00:35;2.90;98.20
3818;DHT22;1924;48.078;11.516;2024-02-26T05:03:01;2.80;98.10
3818;DHT22;1924;48.078;11.516;2024-02-26T05:05:29;2.80;98.10
3818;DHT22;1924;48.078;11.516;2024-02-26T05:07:55;2.80;98.00
3818;DHT22;1924;48.078;11.516;2024-02-26T05:10:22;2.90;98.10
3818;DHT22;1924;48.078;11.516;2024-02-26T05:12:49;2.90;97.90
3818;DHT22;1924;48.078;11.516;2024-02-26T05:15:16;2.80;98.20
3818;DHT22;1924;48.078;11.516;2024-02-26T05:17:45;2.60;98.60
3818;DHT22;1924;48.078;11.516;2024-02-26T05:20:11;2.60;98.80
3818;DHT22;1924;48.078;11.516;2024-02-26T05:22:38;2.60;98.90
3818;DHT22;1924;48.078;11.516;2024-02-26T05:25:05;2.70;98.70
3818;DHT22;1924;48.078;11.516;2024-02-26T05:27:32;2.70;98.80
3818;DHT22;1924;48.078;11.516;2024-02-26T05:29:59;2.90;98.80
3818;DHT22;1924;48.078;11.516;2024-02-26T05:32:25;3.00;98.30
3818;DHT22;1924;48.078;11.516;2024-02-26T05:34:53;3.10;98.20
3818;DHT22;1924;48.078;11.516;2024-02-26T05:37:20;3.10;98.30
3818;DHT22;1924;48.078;11.516;2024-02-26T05:39:48;3.10;98.00
3818;DHT22;1924;48.078;11.516;2024-02-26T05:42:15;3.00;98.30
3818;DHT22;1924;48.078;11.516;2024-02-26T05:44:41;3.00;98.50
3818;DHT22;1924;48.078;11.516;2024-02-26T05:47:08;3.10;98.60
3818;DHT22;1924;48.078;11.516;2024-02-26T05:49:35;3.10;98.50
3818;DHT22;1924;48.078;11.516;2024-02-26T05:52:03;3.30;98.50
3818;DHT22;1924;48.078;11.516;2024-02-26T05:54:30;3.40;98.70
3818;DHT22;1924;48.078;11.516;2024-02-26T05:56:57;3.30;98.70
3818;DHT22;1924;48.078;11.516;2024-02-26T05:59:24;3.20;98.70
3818;DHT22;1924;48.078;11.516;2024-02-26T06:01:50;3.30;98.70
3818;DHT22;1924;48.078;11.516;2024-02-26T06:04:17;3.30;98.80
3818;DHT22;1924;48.078;11.516;2024-02-26T06:06:44;3.40;99.10
3818;DHT22;1924;48.078;11.516;2024-02-26T06:09:12;3.40;99.30
3818;DHT22;1924;48.078;11.516;2024-02-26T06:11:39;3.60;99.10
3818;DHT22;1924;48.078;11.516;2024-02-26T06:14:06;3.70;98.90
3818;DHT22;1924;48.078;11.516;2024-02-26T06:16:33;3.50;99.40
3818;DHT22;1924;48.078;11.516;2024-02-26T06:19:00;3.60;99.20
3818;DHT22;1924;48.078;11.516;2024-02-26T06:21:27;3.60;99.30
3818;DHT22;1924;48.078;11.516;2024-02-26T06:23:53;3.80;99.30
3818;DHT22;1924;48.078;11.516;2024-02-26T06:26:21;3.80;99.20
3818;DHT22;1924;48.078;11.516;2024-02-26T06:28:48;3.70;99.50
3818;DHT22;1924;48.078;11.516;2024-02-26T06:31:15;3.60;99.70
3818;DHT22;1924;48.078;11.516;2024-02-26T06:33:42;3.60;99.90
3818;DHT22;1924;48.078;11.516;2024-02-26T06:36:09;3.50;99.10
3818;DHT22;1924;48.078;11.516;2024-02-26T06:38:36;3.50;98.90
3818;DHT22;1924;48.078;11.516;2024-02-26T06:41:03;3.60;99.70
3818;DHT22;1924;48.078;11.516;2024-02-26T06:43:31;3.70;99.90
3818;DHT22;1924;48.078;11.516;2024-02-26T06:45:58;3.70;99.90
3818;DHT22;1924;48.078;11.516;2024-02-26T06:48:24;3.70;99.90
3818;DHT22;1924;48.078;11.516;2024-02-26T06:50:51;3.70;99.90
3818;DHT22;1924;48.078;11.516;2024-02-26T06:53:18;3.80;99.60
3818;DHT22;1924;48.078;11.516;2024-02-26T06:55:45;3.80;98.90
3818;DHT22;1924;48.078;11.516;2024-02-26T06:58:11;3.90;99.00
3818;DHT22;1924;48.078;11.516;2024-02-26T07:00:40;4.00;99.50
3818;DHT22;1924;48.078;11.516;2024-02-26T07:03:07;4.00;99.30
3818;DHT22;1924;48.078;11.516;2024-02-26T07:05:33;4.00;99.40
3818;DHT22;1924;48.078;11.516;2024-02-26T07:08:00;4.10;99.10
3818;DHT22;1924;48.078;11.516;2024-02-26T07:10:27;4.20;99.90
3818;DHT22;1924;48.078;11.516;2024-02-26T07:12:54;4.30;99.90
3818;DHT22;1924;48.078;11.516;2024-02-26T07:15:20;4.30;99.90
3818;DHT22;1924;48.078;11.516;2024-02-26T07:17:48;4.30;99.90
3818;DHT22;1924;48.078;11.516;2024-02-26T07:20:15;4.40;99.90
3818;DHT22;1924;48.078;11.516;2024-02-26T07:22:43;4.40;98.90
3818;DHT22;1924;48.078;11.516;2024-02-26T07:25:10;4.40;98.60
3818;DHT22;1924;48.078;11.516;2024-02-26T07:27:39;4.50;99.90
3818;DHT22;1924;48.078;11.516;2024-02-26T07:30:07;4.50;99.90
3818;DHT22;1924;48.078;11.516;2024-02-26T07:32:34;4.60;99.90
3818;DHT22;1924;48.078;11.516;2024-02-26T07:35:02;4.60;99.90
3818;DHT22;1924;48.078;11.516;2024-02-26T07:37:28;4.70;99.80
3818;DHT22;1924;48.078;11.516;2024-02-26T07:39:55;4.80;99.90
3818;DHT22;1924;48.078;11.516;2024-02-26T07:42:22;4.90;99.90
3818;DHT22;1924;48.078;11.516;2024-02-26T07:44:49;5.00;99.80
3818;DHT22;1924;48.078;11.516;2024-02-26T07:47:15;5.00;99.40
3818;DHT22;1924;48.078;11.516;2024-02-26T07:49:42;5.00;98.80
3818;DHT22;1924;48.078;11.516;2024-02-26T07:52:10;5.10;99.20
3818;DHT22;1924;48.078;11.516;2024-02-26T07:54:37;5.10;97.60
3818;DHT22;1924;48.078;11.516;2024-02-26T07:57:04;5.10;96.90
3818;DHT22;1924;48.078;11.516;2024-02-26T07:59:31;5.20;97.50
3818;DHT22;1924;48.078;11.516;2024-02-26T08:01:58;5.20;97.60
3818;DHT22;1924;48.078;11.516;2024-02-26T08:04:26;5.20;97.60
3818;DHT22;1924;48.078;11.516;2024-02-26T08:06:53;5.30;98.00
3818;DHT22;1924;48.078;11.516;2024-02-26T08:09:21;5.40;98.70
3818;DHT22;1924;48.078;11.516;2024-02-26T08:11:47;5.40;99.20
3818;DHT22;1924;48.078;11.516;2024-02-26T08:14:14;5.50;99.50
3818;DHT22;1924;48.078;11.516;2024-02-26T08:16:41;5.50;98.60
3818;DHT22;1924;48.078;11.516;2024-02-26T08:19:08;5.50;98.10
3818;DHT22;1924;48.078;11.516;2024-02-26T08:21:35;5.50;97.90
3818;DHT22;1924;48.078;11.516;2024-02-26T08:24:03;5.60;97.50
3818;DHT22;1924;48.078;11.516;2024-02-26T08:26:31;5.60;96.90
3818;DHT22;1924;48.078;11.516;2024-02-26T08:28:58;5.80;96.60
3818;DHT22;1924;48.078;11.516;2024-02-26T08:31:25;5.90;96.10
3818;DHT22;1924;48.078;11.516;2024-02-26T08:33:52;6.00;96.20
3818;DHT22;1924;48.078;11.516;2024-02-26T08:36:19;6.10;96.20
3818;DHT22;1924;48.078;11.516;2024-02-26T08:38:46;6.20;96.10
3818;DHT22;1924;48.078;11.516;2024-02-26T08:41:13;6.30;96.50
3818;DHT22;1924;48.078;11.516;2024-02-26T08:43:41;6.30;96.00
3818;DHT22;1924;48.078;11.516;2024-02-26T08:46:08;6.40;95.20
3818;DHT22;1924;48.078;11.516;2024-02-26T08:48:35;6.40;94.90
3818;DHT22;1924;48.078;11.516;2024-02-26T08:51:05;6.30;94.70
3818;DHT22;1924;48.078;11.516;2024-02-26T08:53:32;6.30;94.90
3818;DHT22;1924;48.078;11.516;2024-02-26T08:55:59;6.40;94.40
3818;DHT22;1924;48.078;11.516;2024-02-26T08:58:26;6.20;94.10
3818;DHT22;1924;48.078;11.516;2024-02-26T09:00:55;6.30;94.20
3818;DHT22;1924;48.078;11.516;2024-02-26T09:03:21;6.30;94.30
3818;DHT22;1924;48.078;11.516;2024-02-26T09:05:48;6.40;94.50
3818;DHT22;1924;48.078;11.516;2024-02-26T09:08:15;6.50;94.50
3818;DHT22;1924;48.078;11.516;2024-02-26T09:10:42;6.50;94.60
3818;DHT22;1924;48.078;11.516;2024-02-26T09:13:09;6.60;94.60
3818;DHT22;1924;48.078;11.516;2024-02-26T09:15:35;6.70;94.70
3818;DHT22;1924;48.078;11.516;2024-02-26T09:18:04;6.90;94.50
3818;DHT22;1924;48.078;11.516;2024-02-26T09:20:30;7.00;94.50
3818;DHT22;1924;48.078;11.516;2024-02-26T09:22:57;7.00;93.70
3818;DHT22;1924;48.078;11.516;2024-02-26T09:25:24;6.90;93.50
3818;DHT22;1924;48.078;11.516;2024-02-26T09:27:51;6.80;92.90
3818;DHT22;1924;48.078;11.516;2024-02-26T09:30:18;6.90;93.40
3818;DHT22;1924;48.078;11.516;2024-02-26T09:32:46;6.90;93.40
3818;DHT22;1924;48.078;11.516;2024-02-26T09:35:15;7.00;92.80
3818;DHT22;1924;48.078;11.516;2024-02-26T09:37:41;7.10;92.70
3818;DHT22;1924;48.078;11.516;2024-02-26T09:40:10;7.20;92.30
3818;DHT22;1924;48.078;11.516;2024-02-26T09:42:43;7.30;92.10
3818;DHT22;1924;48.078;11.516;2024-02-26T09:45:12;7.40;92.00
3818;DHT22;1924;48.078;11.516;2024-02-26T09:47:41;7.50;92.00
3818;DHT22;1924;48.078;11.516;2024-02-26T09:50:09;7.50;91.90
3818;DHT22;1924;48.078;11.516;2024-02-26T09:52:40;7.70;92.00
3818;DHT22;1924;48.078;11.516;2024-02-26T09:55:08;7.90;92.00
3818;DHT22;1924;48.078;11.516;2024-02-26T09:57:37;8.00;91.50
3818;DHT22;1924;48.078;11.516;2024-02-26T10:00:04;8.10;91.80
3818;DHT22;1924;48.078;11.516;2024-02-26T10:02:36;8.40;91.40
3818;DHT22;1924;48.078;11.516;2024-02-26T10:05:05;8.50;91.30
3818;DHT22;1924;48.078;11.516;2024-02-26T10:07:35;8.60;92.10
3818;DHT22;1924;48.078;11.516;2024-02-26T10:10:03;8.60;91.90
3818;DHT22;1924;48.078;11.516;2024-02-26T10:12:30;8.50;92.20
3818;DHT22;1924;48.078;11.516;2024-02-26T10:14:58;8.40;92.40
3818;DHT22;1924;48.078;11.516;2024-02-26T10:17:25;8.50;92.40
3818;DHT22;1924;48.078;11.516;2024-02-26T10:19:52;8.50;92.40
3818;DHT22;1924;48.078;11.516;2024-02-26T10:22:22;8.60;92.30
3818;DHT22;1924;48.078;11.516;2024-02-26T10:24:48;8.80;92.30
3818;DHT22;1924;48.078;11.516;2024-02-26T10:27:17;8.80;92.10
3818;DHT22;1924;48.078;11.516;2024-02-26T10:29:45;8.70;92.00
3818;DHT22;1924;48.078;11.516;2024-02-26T10:32:13;8.70;91.70
3818;DHT22;1924;48.078;11.516;2024-02-26T10:34:40;8.70;91.70
3818;DHT22;1924;48.078;11.516;2024-02-26T10:37:07;8.70;91.00
3818;DHT22;1924;48.078;11.516;2024-02-26T10:39:36;8.70;91.50
3818;DHT22;1924;48.078;11.516;2024-02-26T10:42:04;8.70;90.80
3818;DHT22;1924;48.078;11.516;2024-02-26T10:44:36;8.80;91.30
3818;DHT22;1924;48.078;11.516;2024-02-26T10:47:03;8.90;90.80
3818;DHT22;1924;48.078;11.516;2024-02-26T10:49:30;8.90;90.20
3818;DHT22;1924;48.078;11.516;2024-02-26T10:51:57;9.10;91.20
3818;DHT22;1924;48.078;11.516;2024-02-26T10:54:26;9.40;90.70
3818;DHT22;1924;48.078;11.516;2024-02-26T10:56:55;9.40;88.50
3818;DHT22;1924;48.078;11.516;2024-02-26T10:59:23;9.60;89.70
3818;DHT22;1924;48.078;11.516;2024-02-26T11:01:51;9.70;88.50
3818;DHT22;1924;48.078;11.516;2024-02-26T11:04:18;10.00;88.90
3818;DHT22;1924;48.078;11.516;2024-02-26T11:06:45;10.30;85.60
3818;DHT22;1924;48.078;11.516;2024-02-26T11:09:13;10.60;86.30
3818;DHT22;1924;48.078;11.516;2024-02-26T11:11:41;10.70;84.50
3818;DHT22;1924;48.078;11.516;2024-02-26T11:14:09;10.80;81.90
3818;DHT22;1924;48.078;11.516;2024-02-26T11:16:38;10.70;83.20
3818;DHT22;1924;48.078;11.516;2024-02-26T11:19:08;10.60;82.60
3818;DHT22;1924;48.078;11.516;2024-02-26T11:21:36;10.60;81.60
3818;DHT22;1924;48.078;11.516;2024-02-26T11:24:08;10.60;80.50
3818;DHT22;1924;48.078;11.516;2024-02-26T11:26:38;10.40;81.00
3818;DHT22;1924;48.078;11.516;2024-02-26T11:29:08;10.40;82.00
3818;DHT22;1924;48.078;11.516;2024-02-26T11:31:37;10.30;81.10
3818;DHT22;1924;48.078;11.516;2024-02-26T11:34:07;10.40;83.70
3818;DHT22;1924;48.078;11.516;2024-02-26T11:36:34;10.50;81.20
3818;DHT22;1924;48.078;11.516;2024-02-26T11:39:01;10.70;81.50
3818;DHT22;1924;48.078;11.516;2024-02-26T11:41:28;10.90;81.30
3818;DHT22;1924;48.078;11.516;2024-02-26T11:43:58;10.80;79.10
3818;DHT22;1924;48.078;11.516;2024-02-26T11:46:26;11.00;78.60
3818;DHT22;1924;48.078;11.516;2024-02-26T11:48:55;11.10;78.20
3818;DHT22;1924;48.078;11.516;2024-02-26T11:51:26;11.20;78.10
3818;DHT22;1924;48.078;11.516;2024-02-26T11:53:54;11.40;79.90
3818;DHT22;1924;48.078;11.516;2024-02-26T11:56:24;11.50;78.60
3818;DHT22;1924;48.078;11.516;2024-02-26T11:58:59;11.80;76.80
3818;DHT22;1924;48.078;11.516;2024-02-26T12:01:36;12.00;74.20
3818;DHT22;1924;48.078;11.516;2024-02-26T12:04:04;12.30;74.00
3818;DHT22;1924;48.078;11.516;2024-02-26T12:06:44;12.00;72.80
3818;DHT22;1924;48.078;11.516;2024-02-26T12:09:11;12.10;72.10
3818;DHT22;1924;48.078;11.516;2024-02-26T12:11:39;12.00;71.60
3818;DHT22;1924;48.078;11.516;2024-02-26T12:14:07;12.00;71.80
3818;DHT22;1924;48.078;11.516;2024-02-26T12:16:35;12.00;72.50
3818;DHT22;1924;48.078;11.516;2024-02-26T12:19:04;12.10;71.50
3818;DHT22;1924;48.078;11.516;2024-02-26T12:21:33;11.80;72.00
3818;DHT22;1924;48.078;11.516;2024-02-26T12:24:11;11.70;73.30
3818;DHT22;1924;48.078;11.516;2024-02-26T12:26:39;11.80;71.10
3818;DHT22;1924;48.078;11.516;2024-02-26T12:29:06;12.10;70.70
3818;DHT22;1924;48.078;11.516;2024-02-26T12:31:33;12.40;70.80
3818;DHT22;1924;48.078;11.516;2024-02-26T12:34:00;12.60;69.40
3818;DHT22;1924;48.078;11.516;2024-02-26T12:36:27;12.50;66.50
3818;DHT22;1924;48.078;11.516;2024-02-26T12:38:55;12.30;66.20
3818;DHT22;1924;48.078;11.516;2024-02-26T12:41:22;12.10;66.10
3818;DHT22;1924;48.078;11.516;2024-02-26T12:43:49;12.10;67.00
3818;DHT22;1924;48.078;11.516;2024-02-26T12:46:16;12.00;65.20
3818;DHT22;1924;48.078;11.516;2024-02-26T12:48:43;11.90;67.80
3818;DHT22;1924;48.078;11.516;2024-02-26T12:51:11;11.90;67.60
3818;DHT22;1924;48.078;11.516;2024-02-26T12:53:38;11.90;66.50
3818;DHT22;1924;48.078;11.516;2024-02-26T12:56:07;12.20;67.10
3818;DHT22;1924;48.078;11.516;2024-02-26T12:58:35;12.30;67.30
3818;DHT22;1924;48.078;11.516;2024-02-26T13:01:04;12.50;68.10
3818;DHT22;1924;48.078;11.516;2024-02-26T13:03:31;12.60;65.70
3818;DHT22;1924;48.078;11.516;2024-02-26T13:05:59;12.50;66.20
3818;DHT22;1924;48.078;11.516;2024-02-26T13:08:27;12.60;66.70
3818;DHT22;1924;48.078;11.516;2024-02-26T13:10:54;12.70;66.30
3818;DHT22;1924;48.078;11.516;2024-02-26T13:13:22;12.80;65.10
3818;DHT22;1924;48.078;11.516;2024-02-26T13:15:49;12.80;65.30
3818;DHT22;1924;48.078;11.516;2024-02-26T13:18:16;12.60;65.50
3818;DHT22;1924;48.078;11.516;2024-02-26T13:20:43;12.50;65.70
3818;DHT22;1924;48.078;11.516;2024-02-26T13:23:11;12.50;64.50
3818;DHT22;1924;48.078;11.516;2024-02-26T13:25:38;12.70;65.20
3818;DHT22;1924;48.078;11.516;2024-02-26T13:28:07;12.90;67.10
3818;DHT22;1924;48.078;11.516;2024-02-26T13:30:36;12.70;65.80
3818;DHT22;1924;48.078;11.516;2024-02-26T13:33:09;12.50;66.30
3818;DHT22;1924;48.078;11.516;2024-02-26T13:35:36;12.50;67.60
3818;DHT22;1924;48.078;11.516;2024-02-26T13:38:04;12.40;68.90
3818;DHT22;1924;48.078;11.516;2024-02-26T13:40:32;12.30;70.10
3818;DHT22;1924;48.078;11.516;2024-02-26T13:42:59;12.10;70.40
3818;DHT22;1924;48.078;11.516;2024-02-26T13:45:26;12.00;70.90
3818;DHT22;1924;48.078;11.516;2024-02-26T13:48:01;12.00;71.60
3818;DHT22;1924;48.078;11.516;2024-02-26T13:50:28;11.90;72.50
3818;DHT22;1924;48.078;11.516;2024-02-26T13:52:55;11.90;72.00
3818;DHT22;1924;48.078;11.516;2024-02-26T13:55:23;11.90;71.70
3818;DHT22;1924;48.078;11.516;2024-02-26T13:57:52;11.80;72.40
3818;DHT22;1924;48.078;11.516;2024-02-26T14:00:19;11.80;72.10
3818;DHT22;1924;48.078;11.516;2024-02-26T14:02:46;11.80;71.80
3818;DHT22;1924;48.078;11.516;2024-02-26T14:05:14;11.80;71.50
3818;DHT22;1924;48.078;11.516;2024-02-26T14:07:41;11.80;72.20
3818;DHT22;1924;48.078;11.516;2024-02-26T14:10:09;11.80;71.20
3818;DHT22;1924;48.078;11.516;2024-02-26T14:12:38;11.70;71.20
3818;DHT22;1924;48.078;11.516;2024-02-26T14:15:06;11.70;72.20
3818;DHT22;1924;48.078;11.516;2024-02-26T14:17:33;11.60;72.70
3818;DHT22;1924;48.078;11.516;2024-02-26T14:20:00;11.60;73.40
3818;DHT22;1924;48.078;11.516;2024-02-26T14:22:29;11.50;73.30
3818;DHT22;1924;48.078;11.516;2024-02-26T14:24:58;11.50;74.00
3818;DHT22;1924;48.078;11.516;2024-02-26T14:27:25;11.40;73.80
3818;DHT22;1924;48.078;11.516;2024-02-26T14:29:52;11.40;73.90
3818;DHT22;1924;48.078;11.516;2024-02-26T14:32:20;11.40;73.80
3818;DHT22;1924;48.078;11.516;2024-02-26T14:34:47;11.30;73.60
3818;DHT22;1924;48.078;11.516;2024-02-26T14:37:14;11.30;74.40
3818;DHT22;1924;48.078;11.516;2024-02-26T14:39:42;11.30;74.50
3818;DHT22;1924;48.078;11.516;2024-02-26T14:42:09;11.20;74.60
3818;DHT22;1924;48.078;11.516;2024-02-26T14:44:36;11.20;75.10
3818;DHT22;1924;48.078;11.516;2024-02-26T14:47:03;11.10;75.10
3818;DHT22;1924;48.078;11.516;2024-02-26T14:49:29;11.10;75.30
3818;DHT22;1924;48.078;11.516;2024-02-26T14:51:57;11.10;74.70
3818;DHT22;1924;48.078;11.516;2024-02-26T14:54:23;11.00;75.70
3818;DHT22;1924;48.078;11.516;2024-02-26T14:56:52;11.00;76.50
3818;DHT22;1924;48.078;11.516;2024-02-26T14:59:18;11.00;77.20
3818;DHT22;1924;48.078;11.516;2024-02-26T15:01:45;10.90;78.00
3818;DHT22;1924;48.078;11.516;2024-02-26T15:04:12;10.90;79.10
3818;DHT22;1924;48.078;11.516;2024-02-26T15:06:38;10.90;80.40
3818;DHT22;1924;48.078;11.516;2024-02-26T15:09:06;10.90;81.50
3818;DHT22;1924;48.078;11.516;2024-02-26T15:11:32;10.90;81.20
3818;DHT22;1924;48.078;11.516;2024-02-26T15:14:01;10.80;82.10
3818;DHT22;1924;48.078;11.516;2024-02-26T15:16:28;10.70;82.10
3818;DHT22;1924;48.078;11.516;2024-02-26T15:18:56;10.70;82.30
3818;DHT22;1924;48.078;11.516;2024-02-26T15:21:23;10.80;83.20
3818;DHT22;1924;48.078;11.516;2024-02-26T15:23:50;10.70;83.40
3818;DHT22;1924;48.078;11.516;2024-02-26T15:26:18;10.80;82.60
3818;DHT22;1924;48.078;11.516;2024-02-26T15:28:45;10.70;82.80
3818;DHT22;1924;48.078;11.516;2024-02-26T15:31:15;10.70;83.40
3818;DHT22;1924;48.078;11.516;2024-02-26T15:33:41;10.60;84.10
3818;DHT22;1924;48.078;11.516;2024-02-26T15:36:08;10.50;85.00
3818;DHT22;1924;48.078;11.516;2024-02-26T15:38:36;10.50;84.80
3818;DHT22;1924;48.078;11.516;2024-02-26T15:41:10;10.40;84.70
3818;DHT22;1924;48.078;11.516;2024-02-26T15:43:37;10.40;86.90
3818;DHT22;1924;48.078;11.516;2024-02-26T15:46:04;10.30;86.50
3818;DHT22;1924;48.078;11.516;2024-02-26T15:48:32;10.30;87.40
3818;DHT22;1924;48.078;11.516;2024-02-26T15:50:59;10.30;88.50
3818;DHT22;1924;48.078;11.516;2024-02-26T15:53:26;10.20;87.70
3818;DHT22;1924;48.078;11.516;2024-02-26T15:55:52;10.20;86.80
3818;DHT22;1924;48.078;11.516;2024-02-26T15:58:19;10.30;86.00
3818;DHT22;1924;48.078;11.516;2024-02-26T16:00:46;10.30;86.20
3818;DHT22;1924;48.078;11.516;2024-02-26T16:03:13;10.20;86.00
3818;DHT22;1924;48.078;11.516;2024-02-26T16:05:41;10.10;86.30
3818;DHT22;1924;48.078;11.516;2024-02-26T16:08:12;10.00;86.80
3818;DHT22;1924;48.078;11.516;2024-02-26T16:10:44;10.00;87.00
3818;DHT22;1924;48.078;11.516;2024-02-26T16:13:12;10.00;87.10
3818;DHT22;1924;48.078;11.516;2024-02-26T16:15:43;10.00;87.00
3818;DHT22;1924;48.078;11.516;2024-02-26T16:18:10;10.00;87.10
3818;DHT22;1924;48.078;11.516;2024-02-26T16:20:37;10.00;86.90
3818;DHT22;1924;48.078;11.516;2024-02-26T16:23:05;10.00;87.10
3818;DHT22;1924;48.078;11.516;2024-02-26T16:25:33;9.90;87.70
3818;DHT22;1924;48.078;11.516;2024-02-26T16:28:00;9.80;87.30
3818;DHT22;1924;48.078;11.516;2024-02-26T16:30:27;9.70;87.00
3818;DHT22;1924;48.078;11.516;2024-02-26T16:32:54;9.70;86.50
3818;DHT22;1924;48.078;11.516;2024-02-26T16:35:20;9.80;86.30
3818;DHT22;1924;48.078;11.516;2024-02-26T16:37:47;9.60;86.00
3818;DHT22;1924;48.078;11.516;2024-02-26T16:40:16;9.60;86.40
3818;DHT22;1924;48.078;11.516;2024-02-26T16:42:42;9.60;86.30
3818;DHT22;1924;48.078;11.516;2024-02-26T16:45:09;9.70;86.00
3818;DHT22;1924;48.078;11.516;2024-02-26T16:47:38;9.70;85.80
3818;DHT22;1924;48.078;11.516;2024-02-26T16:50:07;9.70;87.00
3818;DHT22;1924;48.078;11.516;2024-02-26T16:52:34;9.70;86.00
3818;DHT22;1924;48.078;11.516;2024-02-26T16:55:01;9.60;86.50
3818;DHT22;1924;48.078;11.516;2024-02-26T16:57:31;9.60;86.20
3818;DHT22;1924;48.078;11.516;2024-02-26T16:59:58;9.60;86.50
3818;DHT22;1924;48.078;11.516;2024-02-26T17:02:24;9.60;86.20
3818;DHT22;1924;48.078;11.516;2024-02-26T17:04:51;9.50;86.30
3818;DHT22;1924;48.078;11.516;2024-02-26T17:07:18;9.50;86.20
3818;DHT22;1924;48.078;11.516;2024-02-26T17:09:44;9.50;87.00
3818;DHT22;1924;48.078;11.516;2024-02-26T17:12:11;9.50;86.40
3818;DHT22;1924;48.078;11.516;2024-02-26T17:14:40;9.50;86.10
3818;DHT22;1924;48.078;11.516;2024-02-26T17:17:07;9.50;86.70
3818;DHT22;1924;48.078;11.516;2024-02-26T17:19:33;9.50;86.60
3818;DHT22;1924;48.078;11.516;2024-02-26T17:22:00;9.40;86.60
3818;DHT22;1924;48.078;11.516;2024-02-26T17:24:27;9.40;86.80
3818;DHT22;1924;48.078;11.516;2024-02-26T17:26:54;9.50;87.20
3818;DHT22;1924;48.078;11.516;2024-02-26T17:29:21;9.50;87.20
3818;DHT22;1924;48.078;11.516;2024-02-26T17:31:49;9.50;87.20
3818;DHT22;1924;48.078;11.516;2024-02-26T17:34:15;9.40;87.40
3818;DHT22;1924;48.078;11.516;2024-02-26T17:36:42;9.40;87.40
3818;DHT22;1924;48.078;11.516;2024-02-26T17:39:09;9.40;87.90
3818;DHT22;1924;48.078;11.516;2024-02-26T17:41:36;9.40;88.50
3818;DHT22;1924;48.078;11.516;2024-02-26T17:44:03;9.40;88.90
3818;DHT22;1924;48.078;11.516;2024-02-26T17:46:30;9.40;89.00
3818;DHT22;1924;48.078;11.516;2024-02-26T17:48:58;9.30;89.70
3818;DHT22;1924;48.078;11.516;2024-02-26T17:51:25;9.30;90.00
3818;DHT22;1924;48.078;11.516;2024-02-26T17:53:52;9.40;90.20
3818;DHT22;1924;48.078;11.516;2024-02-26T17:56:20;9.30;90.40
3818;DHT22;1924;48.078;11.516;2024-02-26T17:58:47;9.30;90.50
3818;DHT22;1924;48.078;11.516;2024-02-26T18:01:14;9.30;90.60
3818;DHT22;1924;48.078;11.516;2024-02-26T18:03:40;9.30;90.80
3818;DHT22;1924;48.078;11.516;2024-02-26T18:06:09;9.20;90.90
3818;DHT22;1924;48.078;11.516;2024-02-26T18:08:35;9.20;91.20
3818;DHT22;1924;48.078;11.516;2024-02-26T18:11:02;9.10;91.30
3818;DHT22;1924;48.078;11.516;2024-02-26T18:13:29;9.10;91.40
3818;DHT22;1924;48.078;11.516;2024-02-26T18:15:56;9.10;91.70
3818;DHT22;1924;48.078;11.516;2024-02-26T18:18:23;9.00;91.70
3818;DHT22;1924;48.078;11.516;2024-02-26T18:20:50;9.00;91.70
3818;DHT22;1924;48.078;11.516;2024-02-26T18:23:18;9.10;91.90
3818;DHT22;1924;48.078;11.516;2024-02-26T18:25:45;9.10;92.80
3818;DHT22;1924;48.078;11.516;2024-02-26T18:28:12;9.10;92.30
3818;DHT22;1924;48.078;11.516;2024-02-26T18:30:39;9.00;92.20
3818;DHT22;1924;48.078;11.516;2024-02-26T18:33:10;9.00;92.30
3818;DHT22;1924;48.078;11.516;2024-02-26T18:35:36;9.00;92.40
3818;DHT22;1924;48.078;11.516;2024-02-26T18:38:03;8.90;92.60
3818;DHT22;1924;48.078;11.516;2024-02-26T18:40:31;8.90;92.70
3818;DHT22;1924;48.078;11.516;2024-02-26T18:42:58;8.90;92.80
3818;DHT22;1924;48.078;11.516;2024-02-26T18:45:25;8.90;92.90
3818;DHT22;1924;48.078;11.516;2024-02-26T18:47:53;8.90;93.00
3818;DHT22;1924;48.078;11.516;2024-02-26T18:50:20;8.80;93.10
3818;DHT22;1924;48.078;11.516;2024-02-26T18:52:47;8.80;93.30
3818;DHT22;1924;48.078;11.516;2024-02-26T18:55:15;8.80;93.30
3818;DHT22;1924;48.078;11.516;2024-02-26T18:57:43;8.80;93.50
3818;DHT22;1924;48.078;11.516;2024-02-26T19:00:12;8.60;93.70
3818;DHT22;1924;48.078;11.516;2024-02-26T19:02:39;8.60;94.00
3818;DHT22;1924;48.078;11.516;2024-02-26T19:05:09;8.60;94.10
3818;DHT22;1924;48.078;11.516;2024-02-26T19:07:35;8.60;94.10
3818;DHT22;1924;48.078;11.516;2024-02-26T19:10:02;8.60;94.10
3818;DHT22;1924;48.078;11.516;2024-02-26T19:12:29;8.60;94.30
3818;DHT22;1924;48.078;11.516;2024-02-26T19:14:57;8.60;94.50
3818;DHT22;1924;48.078;11.516;2024-02-26T19:17:24;8.50;94.50
3818;DHT22;1924;48.078;11.516;2024-02-26T19:19:51;8.50;94.70
3818;DHT22;1924;48.078;11.516;2024-02-26T19:22:17;8.50;94.60
3818;DHT22;1924;48.078;11.516;2024-02-26T19:24:44;8.40;94.80
3818;DHT22;1924;48.078;11.516;2024-02-26T19:27:11;8.40;95.00
3818;DHT22;1924;48.078;11.516;2024-02-26T19:29:38;8.40;95.00
3818;DHT22;1924;48.078;11.516;2024-02-26T19:32:07;8.40;95.40
3818;DHT22;1924;48.078;11.516;2024-02-26T19:34:36;8.30;95.10
3818;DHT22;1924;48.078;11.516;2024-02-26T19:37:03;8.30;95.30
3818;DHT22;1924;48.078;11.516;2024-02-26T19:39:30;8.30;95.20
3818;DHT22;1924;48.078;11.516;2024-02-26T19:41:57;8.30;95.30
3818;DHT22;1924;48.078;11.516;2024-02-26T19:44:23;8.40;95.40
3818;DHT22;1924;48.078;11.516;2024-02-26T19:46:50;8.40;95.40